Airport ICAO


14:34 UTC

15°C

Broken clouds


An affordable passengers' Moving Map for your aircraft. Made for the iPad and the iPhone
More information here

LFLB Aix Les Bains


Chambery FRANCE   VFR


METAR LFLB 241400Z AUTO 14005KT 100V210 9999 FEW074 BKN160 15/05 Q1017 NOSIG 0h34min

TAF LFLB 241100Z 2412/2512 21006KT CAVOK PROB30 TEMPO 2416/2424 -RA BECMG 2500/2502 -RA BKN060 BECMG 2503/2506 5000 RA SCT015 OVC035 PROB40 TEMPO 2503/2506 21015KT BECMG 2506/2509 34006KT 3h34min





NOTAMS

OPEN